sensor_id;sensor_type;location;lat;lon;timestamp;pressure;altitude;pressure_sealevel;temperature;humidity
45071;BME280;30836;48.906;9.140;2022-07-29T00:00:00;984.40;;;27.19;46.27
45071;BME280;30836;48.906;9.140;2022-07-29T00:01:01;984.40;;;27.21;46.31
45071;BME280;30836;48.906;9.140;2022-07-29T00:02:02;984.40;;;27.21;46.37
45071;BME280;30836;48.906;9.140;2022-07-29T00:03:02;984.40;;;27.22;46.34
45071;BME280;30836;48.906;9.140;2022-07-29T00:04:03;984.38;;;27.23;46.25
45071;BME280;30836;48.906;9.140;2022-07-29T00:05:03;984.38;;;27.23;46.28
45071;BME280;30836;48.906;9.140;2022-07-29T00:06:05;984.38;;;27.23;46.48
45071;BME280;30836;48.906;9.140;2022-07-29T00:07:05;984.38;;;27.22;46.48
45071;BME280;30836;48.906;9.140;2022-07-29T00:08:06;984.38;;;27.21;46.70
45071;BME280;30836;48.906;9.140;2022-07-29T00:09:07;984.32;;;27.20;46.69
45071;BME280;30836;48.906;9.140;2022-07-29T00:10:08;984.30;;;27.20;46.57
45071;BME280;30836;48.906;9.140;2022-07-29T00:11:08;984.26;;;27.20;46.53
45071;BME280;30836;48.906;9.140;2022-07-29T00:12:09;984.28;;;27.20;46.50
45071;BME280;30836;48.906;9.140;2022-07-29T00:12:20;984.26;;;27.20;46.51
45071;BME280;30836;48.906;9.140;2022-07-29T00:13:21;984.24;;;27.20;46.54
45071;BME280;30836;48.906;9.140;2022-07-29T00:14:21;984.20;;;27.13;47.04
45071;BME280;30836;48.906;9.140;2022-07-29T00:15:22;984.18;;;27.02;47.72
45071;BME280;30836;48.906;9.140;2022-07-29T00:16:22;984.16;;;26.89;47.86
45071;BME280;30836;48.906;9.140;2022-07-29T00:17:23;984.14;;;26.78;48.15
45071;BME280;30836;48.906;9.140;2022-07-29T00:18:24;984.12;;;26.68;48.51
45071;BME280;30836;48.906;9.140;2022-07-29T00:19:25;984.12;;;26.59;48.60
45071;BME280;30836;48.906;9.140;2022-07-29T00:20:25;984.10;;;26.52;48.61
45071;BME280;30836;48.906;9.140;2022-07-29T00:21:26;984.12;;;26.46;48.81
45071;BME280;30836;48.906;9.140;2022-07-29T00:22:26;984.10;;;26.40;49.05
45071;BME280;30836;48.906;9.140;2022-07-29T00:23:27;984.08;;;26.35;49.20
45071;BME280;30836;48.906;9.140;2022-07-29T00:24:27;984.08;;;26.30;49.38
45071;BME280;30836;48.906;9.140;2022-07-29T00:25:28;984.07;;;26.24;49.62
45071;BME280;30836;48.906;9.140;2022-07-29T00:26:28;984.07;;;26.19;49.65
45071;BME280;30836;48.906;9.140;2022-07-29T00:27:28;984.10;;;26.14;49.72
45071;BME280;30836;48.906;9.140;2022-07-29T00:28:29;984.10;;;26.10;49.71
45071;BME280;30836;48.906;9.140;2022-07-29T00:29:29;984.07;;;26.08;49.65
45071;BME280;30836;48.906;9.140;2022-07-29T00:30:30;984.07;;;26.07;49.85
45071;BME280;30836;48.906;9.140;2022-07-29T00:31:30;984.05;;;26.05;49.86
45071;BME280;30836;48.906;9.140;2022-07-29T00:32:31;984.05;;;26.05;50.11
45071;BME280;30836;48.906;9.140;2022-07-29T00:33:31;984.07;;;26.03;50.19
45071;BME280;30836;48.906;9.140;2022-07-29T00:34:32;984.07;;;26.02;50.05
45071;BME280;30836;48.906;9.140;2022-07-29T00:35:32;984.08;;;26.02;50.05
45071;BME280;30836;48.906;9.140;2022-07-29T00:36:33;984.08;;;26.01;50.01
45071;BME280;30836;48.906;9.140;2022-07-29T00:37:33;984.08;;;26.00;49.97
45071;BME280;30836;48.906;9.140;2022-07-29T00:38:34;984.08;;;26.00;49.86
45071;BME280;30836;48.906;9.140;2022-07-29T00:39:34;984.10;;;25.99;49.86
45071;BME280;30836;48.906;9.140;2022-07-29T00:40:34;984.12;;;25.98;50.08
45071;BME280;30836;48.906;9.140;2022-07-29T00:41:35;984.10;;;25.96;50.10
45071;BME280;30836;48.906;9.140;2022-07-29T00:43:42;984.07;;;25.95;50.10
45071;BME280;30836;48.906;9.140;2022-07-29T00:44:43;984.07;;;25.95;50.10
45071;BME280;30836;48.906;9.140;2022-07-29T00:45:43;984.03;;;25.95;50.13
45071;BME280;30836;48.906;9.140;2022-07-29T00:46:44;984.05;;;25.93;50.10
45071;BME280;30836;48.906;9.140;2022-07-29T00:47:45;984.03;;;25.92;50.11
45071;BME280;30836;48.906;9.140;2022-07-29T00:48:45;984.01;;;25.90;50.24
45071;BME280;30836;48.906;9.140;2022-07-29T00:49:46;984.03;;;25.87;50.36
45071;BME280;30836;48.906;9.140;2022-07-29T00:50:47;984.03;;;25.84;50.56
45071;BME280;30836;48.906;9.140;2022-07-29T00:51:50;983.97;;;25.80;50.70
45071;BME280;30836;48.906;9.140;2022-07-29T00:52:50;983.97;;;25.76;50.89
45071;BME280;30836;48.906;9.140;2022-07-29T00:53:52;984.01;;;25.71;51.05
45071;BME280;30836;48.906;9.140;2022-07-29T00:54:53;983.97;;;25.67;51.41
45071;BME280;30836;48.906;9.140;2022-07-29T00:55:54;983.99;;;25.62;51.33
45071;BME280;30836;48.906;9.140;2022-07-29T00:56:56;983.97;;;25.60;51.30
45071;BME280;30836;48.906;9.140;2022-07-29T00:57:58;983.97;;;25.61;51.26
45071;BME280;30836;48.906;9.140;2022-07-29T00:58:59;983.95;;;25.63;51.31
45071;BME280;30836;48.906;9.140;2022-07-29T01:00:00;983.93;;;25.63;51.44
45071;BME280;30836;48.906;9.140;2022-07-29T01:01:01;983.95;;;25.61;51.40
45071;BME280;30836;48.906;9.140;2022-07-29T01:02:02;983.97;;;25.59;51.60
45071;BME280;30836;48.906;9.140;2022-07-29T01:03:03;983.97;;;25.56;51.57
45071;BME280;30836;48.906;9.140;2022-07-29T01:04:03;983.95;;;25.54;51.67
45071;BME280;30836;48.906;9.140;2022-07-29T01:05:06;983.95;;;25.51;51.77
45071;BME280;30836;48.906;9.140;2022-07-29T01:06:07;983.95;;;25.50;51.81
45071;BME280;30836;48.906;9.140;2022-07-29T01:07:08;983.93;;;25.48;52.03
45071;BME280;30836;48.906;9.140;2022-07-29T01:08:10;983.95;;;25.45;52.20
45071;BME280;30836;48.906;9.140;2022-07-29T01:09:12;983.95;;;25.42;52.25
45071;BME280;30836;48.906;9.140;2022-07-29T01:10:14;983.93;;;25.40;52.40
45071;BME280;30836;48.906;9.140;2022-07-29T01:11:16;983.95;;;25.36;52.76
45071;BME280;30836;48.906;9.140;2022-07-29T01:12:21;983.93;;;25.32;52.99
45071;BME280;30836;48.906;9.140;2022-07-29T01:13:26;983.93;;;25.29;53.02
45071;BME280;30836;48.906;9.140;2022-07-29T01:14:29;983.95;;;25.26;53.03
45071;BME280;30836;48.906;9.140;2022-07-29T01:15:30;983.93;;;25.25;52.99
45071;BME280;30836;48.906;9.140;2022-07-29T01:16:39;983.93;;;25.24;52.90
45071;BME280;30836;48.906;9.140;2022-07-29T01:17:49;983.91;;;25.23;53.01
45071;BME280;30836;48.906;9.140;2022-07-29T01:18:52;983.89;;;25.21;53.22
45071;BME280;30836;48.906;9.140;2022-07-29T01:22:21;983.89;;;25.14;53.14
45071;BME280;30836;48.906;9.140;2022-07-29T01:30:07;983.91;;;24.94;53.70
45071;BME280;30836;48.906;9.140;2022-07-29T01:31:08;983.91;;;24.94;53.82
45071;BME280;30836;48.906;9.140;2022-07-29T01:32:11;983.91;;;24.95;53.72
45071;BME280;30836;48.906;9.140;2022-07-29T01:33:15;983.91;;;24.97;53.62
45071;BME280;30836;48.906;9.140;2022-07-29T01:34:20;983.91;;;25.01;53.45
45071;BME280;30836;48.906;9.140;2022-07-29T01:35:25;983.89;;;25.11;52.84
45071;BME280;30836;48.906;9.140;2022-07-29T01:38:58;983.89;;;25.58;51.71
45071;BME280;30836;48.906;9.140;2022-07-29T01:40:03;983.89;;;25.71;51.47
45071;BME280;30836;48.906;9.140;2022-07-29T01:41:12;983.89;;;25.81;51.24
45071;BME280;30836;48.906;9.140;2022-07-29T01:43:31;983.89;;;25.96;50.94
45071;BME280;30836;48.906;9.140;2022-07-29T01:44:34;983.87;;;26.00;50.98
45071;BME280;30836;48.906;9.140;2022-07-29T01:45:40;983.85;;;26.02;50.90
45071;BME280;30836;48.906;9.140;2022-07-29T01:46:44;983.85;;;26.02;50.92
45071;BME280;30836;48.906;9.140;2022-07-29T01:48:58;983.81;;;26.02;50.91
45071;BME280;30836;48.906;9.140;2022-07-29T01:50:05;983.81;;;26.02;50.90
45071;BME280;30836;48.906;9.140;2022-07-29T01:53:31;983.81;;;26.07;50.65
45071;BME280;30836;48.906;9.140;2022-07-29T01:54:45;983.83;;;26.09;50.56
45071;BME280;30836;48.906;9.140;2022-07-29T01:55:50;983.83;;;26.09;50.59
45071;BME280;30836;48.906;9.140;2022-07-29T01:56:53;983.79;;;26.08;50.74
45071;BME280;30836;48.906;9.140;2022-07-29T01:57:56;983.81;;;26.05;50.71
45071;BME280;30836;48.906;9.140;2022-07-29T01:58:58;983.79;;;26.04;50.67
45071;BME280;30836;48.906;9.140;2022-07-29T02:00:00;983.81;;;26.05;50.63
45071;BME280;30836;48.906;9.140;2022-07-29T02:01:04;983.81;;;26.05;50.62
45071;BME280;30836;48.906;9.140;2022-07-29T02:02:08;983.79;;;26.06;50.61
45071;BME280;30836;48.906;9.140;2022-07-29T02:03:11;983.83;;;26.03;50.81
45071;BME280;30836;48.906;9.140;2022-07-29T02:04:14;983.79;;;25.94;51.09
45071;BME280;30836;48.906;9.140;2022-07-29T02:05:18;983.77;;;25.82;51.47
45071;BME280;30836;48.906;9.140;2022-07-29T02:06:22;983.75;;;25.71;51.70
45071;BME280;30836;48.906;9.140;2022-07-29T02:07:24;983.77;;;25.61;51.78
45071;BME280;30836;48.906;9.140;2022-07-29T02:08:28;983.77;;;25.54;51.80
45071;BME280;30836;48.906;9.140;2022-07-29T02:09:32;983.77;;;25.49;51.87
45071;BME280;30836;48.906;9.140;2022-07-29T02:10:35;983.79;;;25.44;52.05
45071;BME280;30836;48.906;9.140;2022-07-29T02:11:38;983.77;;;25.38;52.12
45071;BME280;30836;48.906;9.140;2022-07-29T02:12:43;983.79;;;25.34;52.19
45071;BME280;30836;48.906;9.140;2022-07-29T02:13:46;983.75;;;25.29;52.45
45071;BME280;30836;48.906;9.140;2022-07-29T02:14:48;983.71;;;25.23;52.78
45071;BME280;30836;48.906;9.140;2022-07-29T02:15:51;983.73;;;25.16;52.81
45071;BME280;30836;48.906;9.140;2022-07-29T02:16:54;983.71;;;25.10;52.92
45071;BME280;30836;48.906;9.140;2022-07-29T02:17:58;983.69;;;25.06;53.00
45071;BME280;30836;48.906;9.140;2022-07-29T02:19:02;983.69;;;25.01;53.25
45071;BME280;30836;48.906;9.140;2022-07-29T02:20:03;983.71;;;24.97;53.31
45071;BME280;30836;48.906;9.140;2022-07-29T02:21:05;983.73;;;24.95;53.33
45071;BME280;30836;48.906;9.140;2022-07-29T02:22:05;983.75;;;25.01;52.95
45071;BME280;30836;48.906;9.140;2022-07-29T02:23:07;983.77;;;25.10;52.60
45071;BME280;30836;48.906;9.140;2022-07-29T02:24:10;983.75;;;25.21;52.32
45071;BME280;30836;48.906;9.140;2022-07-29T02:25:11;983.73;;;25.31;52.08
45071;BME280;30836;48.906;9.140;2022-07-29T02:26:13;983.75;;;25.38;51.88
45071;BME280;30836;48.906;9.140;2022-07-29T02:27:15;983.73;;;25.42;51.81
45071;BME280;30836;48.906;9.140;2022-07-29T02:28:18;983.73;;;25.40;52.05
45071;BME280;30836;48.906;9.140;2022-07-29T02:29:23;983.73;;;25.36;52.06
45071;BME280;30836;48.906;9.140;2022-07-29T02:30:26;983.73;;;25.26;52.42
45071;BME280;30836;48.906;9.140;2022-07-29T02:31:29;983.73;;;25.15;52.24
45071;BME280;30836;48.906;9.140;2022-07-29T02:32:34;983.71;;;25.10;52.33
45071;BME280;30836;48.906;9.140;2022-07-29T02:33:37;983.71;;;25.06;52.09
45071;BME280;30836;48.906;9.140;2022-07-29T02:34:41;983.73;;;25.05;51.81
45071;BME280;30836;48.906;9.140;2022-07-29T02:35:45;983.71;;;25.06;51.76
45071;BME280;30836;48.906;9.140;2022-07-29T02:36:48;983.75;;;25.07;51.72
45071;BME280;30836;48.906;9.140;2022-07-29T02:37:49;983.77;;;25.10;51.45
45071;BME280;30836;48.906;9.140;2022-07-29T02:38:52;983.79;;;25.12;51.44
45071;BME280;30836;48.906;9.140;2022-07-29T02:39:53;983.81;;;25.14;51.35
45071;BME280;30836;48.906;9.140;2022-07-29T02:40:55;983.83;;;25.20;51.07
45071;BME280;30836;48.906;9.140;2022-07-29T02:41:59;983.83;;;25.30;50.75
45071;BME280;30836;48.906;9.140;2022-07-29T02:43:05;983.87;;;25.39;50.55
45071;BME280;30836;48.906;9.140;2022-07-29T02:44:10;983.83;;;25.44;50.50
45071;BME280;30836;48.906;9.140;2022-07-29T02:45:12;983.83;;;25.46;50.33
45071;BME280;30836;48.906;9.140;2022-07-29T02:46:14;983.83;;;25.50;50.37
45071;BME280;30836;48.906;9.140;2022-07-29T02:47:20;983.83;;;25.49;50.31
45071;BME280;30836;48.906;9.140;2022-07-29T02:48:32;983.81;;;25.50;50.10
45071;BME280;30836;48.906;9.140;2022-07-29T02:50:48;983.81;;;25.60;49.85
45071;BME280;30836;48.906;9.140;2022-07-29T02:51:55;983.79;;;25.63;49.82
45071;BME280;30836;48.906;9.140;2022-07-29T02:53:05;983.77;;;25.66;49.70
45071;BME280;30836;48.906;9.140;2022-07-29T02:54:10;983.79;;;25.69;49.93
45071;BME280;30836;48.906;9.140;2022-07-29T02:55:18;983.77;;;25.71;49.58
45071;BME280;30836;48.906;9.140;2022-07-29T02:56:25;983.75;;;25.74;49.54
45071;BME280;30836;48.906;9.140;2022-07-29T02:59:45;983.81;;;25.75;49.62
45071;BME280;30836;48.906;9.140;2022-07-29T03:00:49;983.79;;;25.78;49.63
45071;BME280;30836;48.906;9.140;2022-07-29T03:01:52;983.83;;;25.81;49.64
45071;BME280;30836;48.906;9.140;2022-07-29T03:03:00;983.85;;;25.83;49.42
45071;BME280;30836;48.906;9.140;2022-07-29T03:04:05;983.85;;;25.83;49.50
45071;BME280;30836;48.906;9.140;2022-07-29T03:05:11;983.81;;;25.82;49.38
45071;BME280;30836;48.906;9.140;2022-07-29T03:06:17;983.83;;;25.82;49.32
45071;BME280;30836;48.906;9.140;2022-07-29T03:07:19;983.79;;;25.84;49.20
45071;BME280;30836;48.906;9.140;2022-07-29T03:08:21;983.79;;;25.87;49.16
45071;BME280;30836;48.906;9.140;2022-07-29T03:09:22;983.79;;;25.88;48.95
45071;BME280;30836;48.906;9.140;2022-07-29T03:10:25;983.79;;;25.91;48.98
45071;BME280;30836;48.906;9.140;2022-07-29T03:11:26;983.83;;;25.93;48.90
45071;BME280;30836;48.906;9.140;2022-07-29T03:12:27;983.83;;;25.95;49.10
45071;BME280;30836;48.906;9.140;2022-07-29T03:13:29;983.83;;;25.95;49.12
45071;BME280;30836;48.906;9.140;2022-07-29T03:14:30;983.85;;;25.96;48.91
45071;BME280;30836;48.906;9.140;2022-07-29T03:15:32;983.85;;;25.98;49.04
45071;BME280;30836;48.906;9.140;2022-07-29T03:16:33;983.87;;;25.98;49.03
45071;BME280;30836;48.906;9.140;2022-07-29T03:17:34;983.87;;;25.99;48.94
45071;BME280;30836;48.906;9.140;2022-07-29T03:18:35;983.85;;;26.00;48.88
45071;BME280;30836;48.906;9.140;2022-07-29T03:19:36;983.89;;;25.99;48.97
45071;BME280;30836;48.906;9.140;2022-07-29T03:20:37;983.85;;;25.95;48.73
45071;BME280;30836;48.906;9.140;2022-07-29T03:21:38;983.89;;;25.93;48.84
45071;BME280;30836;48.906;9.140;2022-07-29T03:22:40;983.91;;;25.94;48.83
45071;BME280;30836;48.906;9.140;2022-07-29T03:23:44;983.89;;;25.96;48.74
45071;BME280;30836;48.906;9.140;2022-07-29T03:24:45;983.91;;;25.97;48.67
45071;BME280;30836;48.906;9.140;2022-07-29T03:25:45;983.89;;;25.99;48.63
45071;BME280;30836;48.906;9.140;2022-07-29T03:26:46;983.89;;;26.00;48.60
45071;BME280;30836;48.906;9.140;2022-07-29T03:27:47;983.87;;;26.00;48.53
45071;BME280;30836;48.906;9.140;2022-07-29T03:28:48;983.85;;;26.00;48.62
45071;BME280;30836;48.906;9.140;2022-07-29T03:29:48;983.83;;;26.01;48.51
45071;BME280;30836;48.906;9.140;2022-07-29T03:30:49;983.81;;;26.03;48.61
45071;BME280;30836;48.906;9.140;2022-07-29T03:31:50;983.81;;;26.05;48.44
45071;BME280;30836;48.906;9.140;2022-07-29T03:32:50;983.81;;;26.06;48.40
45071;BME280;30836;48.906;9.140;2022-07-29T03:33:51;983.79;;;26.07;48.10
45071;BME280;30836;48.906;9.140;2022-07-29T03:34:52;983.83;;;26.07;48.08
45071;BME280;30836;48.906;9.140;2022-07-29T03:35:52;983.81;;;26.08;47.93
45071;BME280;30836;48.906;9.140;2022-07-29T03:36:53;983.83;;;26.08;48.39
45071;BME280;30836;48.906;9.140;2022-07-29T03:37:53;983.83;;;26.12;48.19
45071;BME280;30836;48.906;9.140;2022-07-29T03:38:54;983.83;;;26.17;48.04
45071;BME280;30836;48.906;9.140;2022-07-29T03:39:56;983.85;;;26.23;47.90
45071;BME280;30836;48.906;9.140;2022-07-29T03:41:00;983.87;;;26.28;48.01
45071;BME280;30836;48.906;9.140;2022-07-29T03:42:05;983.85;;;26.31;47.96
45071;BME280;30836;48.906;9.140;2022-07-29T03:43:08;983.83;;;26.32;48.00
45071;BME280;30836;48.906;9.140;2022-07-29T03:44:10;983.85;;;26.33;47.92
45071;BME280;30836;48.906;9.140;2022-07-29T03:45:14;983.85;;;26.34;47.75
45071;BME280;30836;48.906;9.140;2022-07-29T03:46:17;983.89;;;26.31;47.93
45071;BME280;30836;48.906;9.140;2022-07-29T03:47:23;983.89;;;26.30;47.81
45071;BME280;30836;48.906;9.140;2022-07-29T03:48:26;983.87;;;26.34;47.85
45071;BME280;30836;48.906;9.140;2022-07-29T03:49:30;983.91;;;26.36;48.02
45071;BME280;30836;48.906;9.140;2022-07-29T03:50:31;983.89;;;26.38;47.86
45071;BME280;30836;48.906;9.140;2022-07-29T03:51:33;983.87;;;26.41;47.80
45071;BME280;30836;48.906;9.140;2022-07-29T03:52:35;983.87;;;26.43;47.89
45071;BME280;30836;48.906;9.140;2022-07-29T03:53:35;983.85;;;26.46;47.71
45071;BME280;30836;48.906;9.140;2022-07-29T03:54:36;983.83;;;26.48;47.52
45071;BME280;30836;48.906;9.140;2022-07-29T03:55:45;983.85;;;26.48;47.51
45071;BME280;30836;48.906;9.140;2022-07-29T03:56:45;983.83;;;26.49;47.29
45071;BME280;30836;48.906;9.140;2022-07-29T03:57:48;983.87;;;26.51;47.37
45071;BME280;30836;48.906;9.140;2022-07-29T03:58:50;983.83;;;26.52;47.41
45071;BME280;30836;48.906;9.140;2022-07-29T03:59:52;983.85;;;26.45;47.60
45071;BME280;30836;48.906;9.140;2022-07-29T04:00:54;983.79;;;26.37;47.67
45071;BME280;30836;48.906;9.140;2022-07-29T04:01:55;983.81;;;26.37;47.56
45071;BME280;30836;48.906;9.140;2022-07-29T04:02:57;983.83;;;26.40;47.27
45071;BME280;30836;48.906;9.140;2022-07-29T04:03:58;983.83;;;26.44;47.37
45071;BME280;30836;48.906;9.140;2022-07-29T04:05:00;983.83;;;26.48;47.25
45071;BME280;30836;48.906;9.140;2022-07-29T04:06:02;983.83;;;26.52;47.40
45071;BME280;30836;48.906;9.140;2022-07-29T04:07:05;983.79;;;26.52;47.05
45071;BME280;30836;48.906;9.140;2022-07-29T04:08:05;983.81;;;26.53;47.04
45071;BME280;30836;48.906;9.140;2022-07-29T04:09:06;983.81;;;26.58;47.06
45071;BME280;30836;48.906;9.140;2022-07-29T04:10:07;983.81;;;26.61;47.07
45071;BME280;30836;48.906;9.140;2022-07-29T04:11:08;983.83;;;26.62;46.82
45071;BME280;30836;48.906;9.140;2022-07-29T04:12:08;983.85;;;26.64;46.77
45071;BME280;30836;48.906;9.140;2022-07-29T04:13:09;983.83;;;26.66;46.88
45071;BME280;30836;48.906;9.140;2022-07-29T04:14:09;983.83;;;26.70;46.93
45071;BME280;30836;48.906;9.140;2022-07-29T04:15:10;983.85;;;26.72;47.02
45071;BME280;30836;48.906;9.140;2022-07-29T04:16:10;983.83;;;26.72;46.89
45071;BME280;30836;48.906;9.140;2022-07-29T04:17:11;983.83;;;26.72;47.06
45071;BME280;30836;48.906;9.140;2022-07-29T04:18:11;983.85;;;26.75;47.14
45071;BME280;30836;48.906;9.140;2022-07-29T04:19:12;983.83;;;26.77;47.02
45071;BME280;30836;48.906;9.140;2022-07-29T04:20:13;983.83;;;26.77;47.03
45071;BME280;30836;48.906;9.140;2022-07-29T04:21:13;983.85;;;26.76;47.05
45071;BME280;30836;48.906;9.140;2022-07-29T04:22:13;983.87;;;26.75;47.10
45071;BME280;30836;48.906;9.140;2022-07-29T04:23:14;983.85;;;26.75;47.13
45071;BME280;30836;48.906;9.140;2022-07-29T04:24:14;983.87;;;26.76;47.15
45071;BME280;30836;48.906;9.140;2022-07-29T04:25:15;983.89;;;26.76;46.91
45071;BME280;30836;48.906;9.140;2022-07-29T04:26:16;983.89;;;26.76;46.98
45071;BME280;30836;48.906;9.140;2022-07-29T04:27:17;983.87;;;26.77;47.04
45071;BME280;30836;48.906;9.140;2022-07-29T04:28:18;983.89;;;26.77;47.30
45071;BME280;30836;48.906;9.140;2022-07-29T04:29:18;983.87;;;26.77;47.29
45071;BME280;30836;48.906;9.140;2022-07-29T04:30:18;983.87;;;26.77;47.31
45071;BME280;30836;48.906;9.140;2022-07-29T04:31:19;983.87;;;26.76;47.44
45071;BME280;30836;48.906;9.140;2022-07-29T04:32:19;983.89;;;26.76;47.33
45071;BME280;30836;48.906;9.140;2022-07-29T04:33:20;983.87;;;26.76;47.36
45071;BME280;30836;48.906;9.140;2022-07-29T04:34:20;983.87;;;26.76;47.22
45071;BME280;30836;48.906;9.140;2022-07-29T04:35:21;983.91;;;26.75;47.18
45071;BME280;30836;48.906;9.140;2022-07-29T04:36:21;983.89;;;26.73;47.29
45071;BME280;30836;48.906;9.140;2022-07-29T04:37:22;983.91;;;26.71;47.25
45071;BME280;30836;48.906;9.140;2022-07-29T04:38:22;983.93;;;26.70;47.25
45071;BME280;30836;48.906;9.140;2022-07-29T04:39:24;983.91;;;26.71;47.07
45071;BME280;30836;48.906;9.140;2022-07-29T04:39:34;983.93;;;26.70;47.02
45071;BME280;30836;48.906;9.140;2022-07-29T04:40:35;983.93;;;26.71;47.13
45071;BME280;30836;48.906;9.140;2022-07-29T04:41:35;983.93;;;26.67;47.66
45071;BME280;30836;48.906;9.140;2022-07-29T04:42:36;983.93;;;26.54;47.96
45071;BME280;30836;48.906;9.140;2022-07-29T04:43:36;983.91;;;26.41;48.12
45071;BME280;30836;48.906;9.140;2022-07-29T04:44:37;983.91;;;26.30;48.38
45071;BME280;30836;48.906;9.140;2022-07-29T04:45:37;983.91;;;26.20;48.73
45071;BME280;30836;48.906;9.140;2022-07-29T04:46:38;983.89;;;26.09;49.01
45071;BME280;30836;48.906;9.140;2022-07-29T04:47:38;983.89;;;25.98;49.15
45071;BME280;30836;48.906;9.140;2022-07-29T04:48:39;983.91;;;25.89;49.42
45071;BME280;30836;48.906;9.140;2022-07-29T04:49:39;983.89;;;25.83;49.46
45071;BME280;30836;48.906;9.140;2022-07-29T04:50:40;983.87;;;25.77;49.69
45071;BME280;30836;48.906;9.140;2022-07-29T04:51:40;983.89;;;25.71;50.01
45071;BME280;30836;48.906;9.140;2022-07-29T04:52:41;983.87;;;25.66;50.15
45071;BME280;30836;48.906;9.140;2022-07-29T04:53:41;983.87;;;25.63;50.03
45071;BME280;30836;48.906;9.140;2022-07-29T04:54:42;983.87;;;25.62;50.07
45071;BME280;30836;48.906;9.140;2022-07-29T04:55:42;983.87;;;25.62;50.13
45071;BME280;30836;48.906;9.140;2022-07-29T04:56:42;983.87;;;25.62;50.34
45071;BME280;30836;48.906;9.140;2022-07-29T04:57:43;983.83;;;25.60;50.10
45071;BME280;30836;48.906;9.140;2022-07-29T04:58:43;983.83;;;25.59;50.02
45071;BME280;30836;48.906;9.140;2022-07-29T04:59:44;983.83;;;25.60;50.07
45071;BME280;30836;48.906;9.140;2022-07-29T05:00:44;983.83;;;25.63;50.22
45071;BME280;30836;48.906;9.140;2022-07-29T05:00:54;983.85;;;25.64;50.20
45071;BME280;30836;48.906;9.140;2022-07-29T05:01:55;983.83;;;25.67;49.97
45071;BME280;30836;48.906;9.140;2022-07-29T05:02:55;983.81;;;25.72;49.85
45071;BME280;30836;48.906;9.140;2022-07-29T05:03:56;983.83;;;25.76;49.96
45071;BME280;30836;48.906;9.140;2022-07-29T05:04:56;983.83;;;25.78;50.11
45071;BME280;30836;48.906;9.140;2022-07-29T05:05:57;983.83;;;25.78;49.97
45071;BME280;30836;48.906;9.140;2022-07-29T05:06:57;983.85;;;25.77;50.09
45071;BME280;30836;48.906;9.140;2022-07-29T05:07:58;983.87;;;25.76;50.46
45071;BME280;30836;48.906;9.140;2022-07-29T05:08:58;983.87;;;25.76;50.46
45071;BME280;30836;48.906;9.140;2022-07-29T05:09:59;983.91;;;25.77;49.96
45071;BME280;30836;48.906;9.140;2022-07-29T05:10:59;983.93;;;25.78;50.01
45071;BME280;30836;48.906;9.140;2022-07-29T05:12:00;983.95;;;25.79;50.23
45071;BME280;30836;48.906;9.140;2022-07-29T05:13:01;983.97;;;25.80;50.27
45071;BME280;30836;48.906;9.140;2022-07-29T05:14:01;983.97;;;25.82;49.90
45071;BME280;30836;48.906;9.140;2022-07-29T05:15:02;983.97;;;25.85;49.95
45071;BME280;30836;48.906;9.140;2022-07-29T05:16:02;983.97;;;25.89;50.14
45071;BME280;30836;48.906;9.140;2022-07-29T05:17:03;983.99;;;25.95;50.09
45071;BME280;30836;48.906;9.140;2022-07-29T05:18:04;983.97;;;26.06;49.65
45071;BME280;30836;48.906;9.140;2022-07-29T05:19:04;983.97;;;26.22;48.92
45071;BME280;30836;48.906;9.140;2022-07-29T05:20:05;983.95;;;26.40;48.44
45071;BME280;30836;48.906;9.140;2022-07-29T05:21:06;983.99;;;26.57;48.15
45071;BME280;30836;48.906;9.140;2022-07-29T05:22:06;984.01;;;26.73;47.96
45071;BME280;30836;48.906;9.140;2022-07-29T05:23:07;984.01;;;26.84;47.72
45071;BME280;30836;48.906;9.140;2022-07-29T05:24:07;984.03;;;26.94;47.16
45071;BME280;30836;48.906;9.140;2022-07-29T05:25:08;984.03;;;27.01;47.25
45071;BME280;30836;48.906;9.140;2022-07-29T05:26:08;984.05;;;27.09;46.87
45071;BME280;30836;48.906;9.140;2022-07-29T05:27:09;984.03;;;27.17;46.96
45071;BME280;30836;48.906;9.140;2022-07-29T05:28:09;984.01;;;27.24;46.51
45071;BME280;30836;48.906;9.140;2022-07-29T05:29:10;984.01;;;27.28;46.79
45071;BME280;30836;48.906;9.140;2022-07-29T05:30:11;983.99;;;27.30;46.14
45071;BME280;30836;48.906;9.140;2022-07-29T05:31:11;983.99;;;27.36;46.32
45071;BME280;30836;48.906;9.140;2022-07-29T05:32:12;983.99;;;27.44;46.12
45071;BME280;30836;48.906;9.140;2022-07-29T05:33:13;984.01;;;27.50;46.14
45071;BME280;30836;48.906;9.140;2022-07-29T05:34:14;983.99;;;27.57;46.04
45071;BME280;30836;48.906;9.140;2022-07-29T05:35:14;984.01;;;27.63;45.62
45071;BME280;30836;48.906;9.140;2022-07-29T05:36:15;983.99;;;27.68;45.65
45071;BME280;30836;48.906;9.140;2022-07-29T05:37:15;984.01;;;27.73;45.45
45071;BME280;30836;48.906;9.140;2022-07-29T05:38:16;984.03;;;27.76;45.46
45071;BME280;30836;48.906;9.140;2022-07-29T05:39:16;984.03;;;27.77;45.48
45071;BME280;30836;48.906;9.140;2022-07-29T05:40:17;984.07;;;27.78;45.51
45071;BME280;30836;48.906;9.140;2022-07-29T05:41:18;984.05;;;27.80;45.38
45071;BME280;30836;48.906;9.140;2022-07-29T05:42:19;984.08;;;27.81;45.71
45071;BME280;30836;48.906;9.140;2022-07-29T05:43:19;984.08;;;27.80;45.54
45071;BME280;30836;48.906;9.140;2022-07-29T05:44:20;984.08;;;27.79;45.60
45071;BME280;30836;48.906;9.140;2022-07-29T05:45:20;984.10;;;27.79;45.47
45071;BME280;30836;48.906;9.140;2022-07-29T05:46:21;984.08;;;27.79;45.71
45071;BME280;30836;48.906;9.140;2022-07-29T05:47:22;984.07;;;27.77;45.84
45071;BME280;30836;48.906;9.140;2022-07-29T05:48:23;984.08;;;27.76;45.84
45071;BME280;30836;48.906;9.140;2022-07-29T05:49:24;984.10;;;27.76;46.20
45071;BME280;30836;48.906;9.140;2022-07-29T05:50:24;984.08;;;27.75;45.93
45071;BME280;30836;48.906;9.140;2022-07-29T05:51:25;984.07;;;27.73;45.90
45071;BME280;30836;48.906;9.140;2022-07-29T05:52:25;984.08;;;27.73;45.82
45071;BME280;30836;48.906;9.140;2022-07-29T05:53:26;984.10;;;27.73;45.84
45071;BME280;30836;48.906;9.140;2022-07-29T05:54:26;984.10;;;27.73;45.96